createdAt,value
2018-06-25T00:00:00.468Z,101598.20
2018-06-25T00:02:05.291Z,101591.39
2018-06-25T00:04:10.151Z,101595.89
2018-06-25T00:06:14.912Z,101512.86
2018-06-25T00:08:19.791Z,101587.69
2018-06-25T00:10:24.483Z,101594.97
2018-06-25T00:12:29.291Z,101420.91
2018-06-25T00:14:34.116Z,101500.82
2018-06-25T00:16:38.853Z,101599.87
2018-06-25T00:18:43.615Z,101596.52
2018-06-25T00:20:48.456Z,101597.38
2018-06-25T00:22:53.243Z,101559.64
2018-06-25T00:24:58.051Z,101567.36
2018-06-25T00:27:02.746Z,101565.49
2018-06-25T00:29:07.496Z,101596.52
2018-06-25T00:31:12.213Z,101600.23
2018-06-25T00:33:16.983Z,101597.41
2018-06-25T00:35:22.309Z,101602.02
2018-06-25T00:37:27.169Z,101579.98
2018-06-25T00:39:32.060Z,101417.33
2018-06-25T00:41:37.042Z,101608.92
2018-06-25T00:43:41.800Z,101607.91
2018-06-25T00:45:46.665Z,101556.97
2018-06-25T00:47:51.435Z,101536.89
2018-06-25T00:49:56.203Z,101547.70
2018-06-25T00:52:01.001Z,101490.75
2018-06-25T00:54:06.490Z,101593.09
2018-06-25T00:56:11.439Z,101592.17
2018-06-25T00:58:16.508Z,101524.80
2018-06-25T01:00:21.288Z,101587.08
2018-06-25T01:02:26.134Z,101590.75
2018-06-25T01:04:31.016Z,101586.88
2018-06-25T01:06:35.808Z,101591.42
2018-06-25T01:08:40.480Z,101584.92
2018-06-25T01:10:45.143Z,101592.87
2018-06-25T01:12:49.904Z,101596.08
2018-06-25T01:14:54.529Z,101598.43
2018-06-25T01:16:59.246Z,101601.92
2018-06-25T01:19:03.903Z,101601.74
2018-06-25T01:21:08.589Z,101596.55
2018-06-25T01:23:13.216Z,101592.80
2018-06-25T01:25:17.991Z,101569.53
2018-06-25T01:27:22.685Z,101579.25
2018-06-25T01:31:36.526Z,101578.59
2018-06-25T01:33:41.278Z,101597.55
2018-06-25T01:35:45.888Z,101585.73
2018-06-25T01:37:50.520Z,101590.13
2018-06-25T01:39:55.122Z,101586.14
2018-06-25T01:41:59.794Z,101584.25
2018-06-25T01:44:04.568Z,101579.38
2018-06-25T01:46:09.232Z,101588.00
2018-06-25T01:48:13.918Z,101585.44
2018-06-25T01:50:18.545Z,101593.69
2018-06-25T01:52:24.039Z,101583.38
2018-06-25T01:54:28.694Z,101546.94
2018-06-25T01:56:33.416Z,101582.48
2018-06-25T01:58:38.074Z,101585.17
2018-06-25T02:00:42.697Z,101585.58
2018-06-25T02:02:47.350Z,101590.31
2018-06-25T02:04:52.219Z,101587.45
2018-06-25T02:06:56.881Z,101590.70
2018-06-25T02:09:01.547Z,101598.94
2018-06-25T02:11:06.237Z,101600.66
2018-06-25T02:13:10.842Z,101597.21
2018-06-25T02:15:15.663Z,101601.52
2018-06-25T02:17:20.394Z,101598.66
2018-06-25T02:19:25.148Z,101594.90
2018-06-25T02:21:30.148Z,101594.34
2018-06-25T02:23:34.902Z,101594.16
2018-06-25T02:25:39.618Z,101592.72
2018-06-25T02:27:44.386Z,101597.31
2018-06-25T02:29:49.065Z,101598.53
2018-06-25T02:31:53.727Z,101559.01
2018-06-25T02:33:58.683Z,101588.02
2018-06-25T02:36:03.311Z,101600.20
2018-06-25T02:38:07.933Z,101594.42
2018-06-25T02:40:12.625Z,101545.56
2018-06-25T02:44:19.423Z,101583.53
2018-06-25T02:46:24.167Z,101596.84
2018-06-25T02:48:28.897Z,101602.41
2018-06-25T02:50:33.571Z,101595.87
2018-06-25T02:52:38.240Z,101595.08
2018-06-25T02:54:42.854Z,101599.29
2018-06-25T02:56:47.507Z,101596.73
2018-06-25T02:58:52.146Z,101592.57
2018-06-25T03:00:56.836Z,101588.33
2018-06-25T03:03:01.479Z,101608.78
2018-06-25T03:05:06.243Z,101606.41
2018-06-25T03:07:10.882Z,101609.30
2018-06-25T03:09:15.561Z,101607.37
2018-06-25T03:11:20.221Z,101590.77
2018-06-25T03:13:24.849Z,101610.55
2018-06-25T03:15:29.571Z,101608.28
2018-06-25T03:17:34.290Z,101607.00
2018-06-25T03:19:38.976Z,101606.09
2018-06-25T03:21:43.666Z,101606.44
2018-06-25T03:23:48.367Z,101608.84
2018-06-25T03:25:53.031Z,101613.00
2018-06-25T03:27:57.686Z,101617.09
2018-06-25T03:30:02.379Z,101620.95
2018-06-25T03:32:07.380Z,101617.97
2018-06-25T03:34:12.319Z,101616.34
2018-06-25T03:36:17.386Z,101611.20
2018-06-25T03:38:22.042Z,101616.41
2018-06-25T03:40:27.023Z,101614.97
2018-06-25T03:42:31.876Z,101616.94
2018-06-25T03:44:36.762Z,101619.77
2018-06-25T03:46:41.730Z,101607.14
2018-06-25T03:48:46.415Z,101619.55
2018-06-25T03:50:51.038Z,101600.60
2018-06-25T03:52:55.696Z,101588.27
2018-06-25T03:55:00.527Z,101635.48
2018-06-25T03:57:05.351Z,101636.79
2018-06-25T03:59:10.257Z,101635.67
2018-06-25T04:01:15.241Z,101630.02
2018-06-25T04:03:20.276Z,101634.16
2018-06-25T04:05:25.341Z,101636.54
2018-06-25T04:07:30.034Z,101638.31
2018-06-25T04:09:34.739Z,101638.23
2018-06-25T04:11:39.648Z,101637.73
2018-06-25T04:13:44.311Z,101621.28
2018-06-25T04:15:49.061Z,101637.73
2018-06-25T04:17:53.781Z,101638.15
2018-06-25T04:19:58.497Z,101645.55
2018-06-25T04:22:03.254Z,101643.86
2018-06-25T04:24:07.982Z,101641.92
2018-06-25T04:26:12.718Z,101648.45
2018-06-25T04:28:17.619Z,101639.59
2018-06-25T04:30:21.966Z,101613.17
2018-06-25T04:32:26.703Z,101645.00
2018-06-25T04:34:31.369Z,101647.92
2018-06-25T04:36:36.126Z,101649.45
2018-06-25T04:38:41.384Z,101647.42
2018-06-25T04:40:46.088Z,101650.61
2018-06-25T04:44:48.821Z,101649.98
2018-06-25T04:46:53.802Z,101649.28
2018-06-25T04:48:58.496Z,101653.14
2018-06-25T04:51:03.265Z,101646.41
2018-06-25T04:53:07.966Z,101654.44
2018-06-25T04:55:12.614Z,101662.61
2018-06-25T04:57:17.331Z,101657.23
2018-06-25T04:59:22.231Z,101656.42
2018-06-25T05:01:27.075Z,101663.46
2018-06-25T05:03:31.823Z,101641.40
2018-06-25T05:05:36.862Z,101662.23
2018-06-25T05:07:42.068Z,101665.62
2018-06-25T05:09:46.795Z,101669.94
2018-06-25T05:11:52.492Z,101667.14
2018-06-25T05:13:57.175Z,101660.55
2018-06-25T05:16:01.937Z,101660.52
2018-06-25T05:18:06.862Z,101660.06
2018-06-25T05:20:11.544Z,101667.86
2018-06-25T05:22:16.274Z,101644.20
2018-06-25T05:24:21.039Z,101663.64
2018-06-25T05:26:25.919Z,101670.41
2018-06-25T05:28:30.547Z,101676.20
2018-06-25T05:30:35.379Z,101673.26
2018-06-25T05:32:40.220Z,101681.91
2018-06-25T05:34:45.100Z,101685.36
2018-06-25T05:36:49.840Z,101596.53
2018-06-25T05:38:54.539Z,101686.55
2018-06-25T05:40:59.261Z,101691.45
2018-06-25T05:43:03.958Z,101690.09
2018-06-25T05:45:08.802Z,101684.03
2018-06-25T05:47:13.513Z,101677.73
2018-06-25T05:49:18.253Z,101681.88
2018-06-25T05:51:23.142Z,101689.23
2018-06-25T05:53:27.814Z,101675.01
2018-06-25T05:55:32.553Z,101684.73
2018-06-25T05:57:39.759Z,101691.13
2018-06-25T05:59:44.672Z,101692.52
2018-06-25T06:01:49.439Z,101699.77
2018-06-25T06:03:54.484Z,101696.11
2018-06-25T06:05:59.292Z,101702.67
2018-06-25T06:08:04.250Z,101704.70
2018-06-25T06:10:09.206Z,101710.41
2018-06-25T06:12:14.107Z,101711.03
2018-06-25T06:14:18.827Z,101684.61
2018-06-25T06:16:23.546Z,101710.38
2018-06-25T06:18:28.337Z,101709.90
2018-06-25T06:20:33.035Z,101713.54
2018-06-25T06:22:37.737Z,101718.77
2018-06-25T06:24:42.532Z,101718.55
2018-06-25T06:26:47.860Z,101725.11
2018-06-25T06:28:52.591Z,101722.86
2018-06-25T06:30:57.353Z,101720.63
2018-06-25T06:33:02.262Z,101723.84
2018-06-25T06:35:07.281Z,101728.52
2018-06-25T06:37:11.975Z,101728.33
2018-06-25T06:39:16.963Z,101728.09
2018-06-25T06:41:21.804Z,101734.92
2018-06-25T06:43:26.640Z,101739.05
2018-06-25T06:45:31.416Z,101731.48
2018-06-25T06:47:36.087Z,101748.14
2018-06-25T06:49:40.811Z,101739.75
2018-06-25T06:51:45.574Z,101738.83
2018-06-25T06:53:50.444Z,101743.88
2018-06-25T06:55:55.274Z,101749.66
2018-06-25T06:58:00.029Z,101748.08
2018-06-25T07:00:05.267Z,101748.45
2018-06-25T07:02:10.058Z,101744.47
2018-06-25T07:04:14.845Z,101753.16
2018-06-25T07:06:19.818Z,101755.16
2018-06-25T07:08:24.551Z,101740.78
2018-06-25T07:10:29.001Z,101756.78
2018-06-25T07:12:33.782Z,101759.28
2018-06-25T07:14:38.535Z,101756.26
2018-06-25T07:16:43.620Z,101756.73
2018-06-25T07:18:48.448Z,101760.87
2018-06-25T07:20:53.202Z,101762.59
2018-06-25T07:22:57.985Z,101763.45
2018-06-25T07:25:02.744Z,101766.98
2018-06-25T07:27:07.574Z,101758.53
2018-06-25T07:29:12.475Z,101759.48
2018-06-25T07:31:17.192Z,101762.39
2018-06-25T07:33:22.129Z,101764.07
2018-06-25T07:35:26.884Z,101751.39
2018-06-25T07:37:31.653Z,101764.24
2018-06-25T07:39:36.389Z,101724.53
2018-06-25T07:41:41.051Z,101761.41
2018-06-25T07:43:46.000Z,101759.63
2018-06-25T07:45:50.725Z,101736.99
2018-06-25T07:47:55.428Z,101749.77
2018-06-25T07:50:06.715Z,101758.88
2018-06-25T07:52:11.402Z,101762.16
2018-06-25T07:54:16.142Z,101752.67
2018-06-25T07:56:20.877Z,101768.13
2018-06-25T07:58:25.655Z,101767.52
2018-06-25T08:00:30.394Z,101739.77
2018-06-25T08:02:35.271Z,101776.54
2018-06-25T08:04:40.147Z,101776.36
2018-06-25T08:06:45.119Z,101772.28
2018-06-25T08:08:50.103Z,101773.23
2018-06-25T08:10:54.958Z,101779.58
2018-06-25T08:12:59.700Z,101781.22
2018-06-25T08:15:04.662Z,101778.30
2018-06-25T08:17:09.570Z,101780.38
2018-06-25T08:19:14.257Z,101783.98
2018-06-25T08:21:19.035Z,101784.48
2018-06-25T08:23:24.058Z,101785.78
2018-06-25T08:25:28.796Z,101787.28
2018-06-25T08:27:33.666Z,101786.37
2018-06-25T08:29:38.574Z,101786.45
2018-06-25T08:31:43.380Z,101791.15
2018-06-25T08:33:48.312Z,101790.27
2018-06-25T08:35:53.127Z,101788.90
2018-06-25T08:37:58.038Z,101795.17
2018-06-25T08:40:02.926Z,101786.88
2018-06-25T08:42:08.175Z,101782.92
2018-06-25T08:44:12.985Z,101789.40
2018-06-25T08:46:17.722Z,101785.58
2018-06-25T08:48:22.532Z,101793.47
2018-06-25T08:50:27.345Z,101770.10
2018-06-25T08:52:32.086Z,101761.33
2018-06-25T08:54:36.806Z,101799.18
2018-06-25T08:56:41.572Z,101787.08
2018-06-25T08:58:46.330Z,101799.00
2018-06-25T09:00:51.133Z,101801.27
2018-06-25T09:02:55.991Z,101806.19
2018-06-25T09:05:00.740Z,101815.82
2018-06-25T09:07:05.685Z,101810.42
2018-06-25T09:09:12.144Z,101804.27
2018-06-25T09:11:17.050Z,101785.02
2018-06-25T09:13:21.815Z,101807.48
2018-06-25T09:15:26.636Z,101808.61
2018-06-25T09:17:31.482Z,101760.14
2018-06-25T09:19:36.379Z,101807.30
2018-06-25T09:21:41.255Z,101810.73
2018-06-25T09:23:45.970Z,101813.77
2018-06-25T09:25:50.849Z,101812.48
2018-06-25T09:27:59.632Z,101802.69
2018-06-25T09:30:04.505Z,101813.11
2018-06-25T09:32:09.545Z,101812.69
2018-06-25T09:34:49.493Z,101813.33
2018-06-25T09:36:54.233Z,101806.59
2018-06-25T09:38:58.953Z,101809.52
2018-06-25T09:41:03.806Z,101798.53
2018-06-25T09:43:09.151Z,101814.20
2018-06-25T09:45:13.958Z,101800.39
2018-06-25T09:47:18.710Z,101817.27
2018-06-25T09:49:23.467Z,101820.75
2018-06-25T09:51:28.245Z,101816.81
2018-06-25T09:53:32.931Z,101778.38
2018-06-25T09:55:37.934Z,101818.35
2018-06-25T09:57:42.801Z,101822.09
2018-06-25T09:59:47.590Z,101821.67
2018-06-25T10:01:52.491Z,101818.97
2018-06-25T10:03:57.326Z,101819.83
2018-06-25T10:06:02.069Z,101821.00
2018-06-25T10:08:06.902Z,101821.52
2018-06-25T10:10:11.621Z,101812.61
2018-06-25T10:12:16.339Z,101807.98
2018-06-25T10:14:21.157Z,101818.73
2018-06-25T10:16:25.880Z,101815.45
2018-06-25T10:18:30.729Z,101816.55
2018-06-25T10:20:35.463Z,101820.49
2018-06-25T10:22:40.320Z,101815.92
2018-06-25T10:24:45.087Z,101817.97
2018-06-25T10:26:49.972Z,101817.17
2018-06-25T10:28:54.857Z,101817.63
2018-06-25T10:30:59.719Z,101807.92
2018-06-25T10:33:04.520Z,101822.53
2018-06-25T10:35:09.350Z,101814.20
2018-06-25T10:37:14.256Z,101819.54
2018-06-25T10:39:19.107Z,101820.33
2018-06-25T10:41:24.350Z,101808.55
2018-06-25T10:43:29.259Z,101827.77
2018-06-25T10:45:34.046Z,101824.15
2018-06-25T10:47:38.779Z,101826.59
2018-06-25T10:49:43.546Z,101820.25
2018-06-25T10:51:48.273Z,101828.55
2018-06-25T10:53:53.486Z,101835.74
2018-06-25T10:55:58.148Z,101835.56
2018-06-25T10:58:03.038Z,101833.70
2018-06-25T11:00:08.252Z,101829.77
2018-06-25T11:02:12.667Z,101821.82
2018-06-25T11:04:17.362Z,101828.58
2018-06-25T11:06:22.079Z,101831.33
2018-06-25T11:08:26.863Z,101831.13
2018-06-25T11:10:31.537Z,101808.70
2018-06-25T11:12:36.243Z,101825.66
2018-06-25T11:14:41.004Z,101815.56
2018-06-25T11:16:45.753Z,101825.72
2018-06-25T11:18:50.758Z,101814.89
2018-06-25T11:20:56.933Z,101822.66
2018-06-25T11:23:01.866Z,101822.23
2018-06-25T11:25:06.653Z,101821.55
2018-06-25T11:27:11.677Z,101818.56
2018-06-25T11:29:16.273Z,101816.47
2018-06-25T11:31:21.040Z,101823.28
2018-06-25T11:33:25.721Z,101822.59
2018-06-25T11:35:30.431Z,101812.80
2018-06-25T11:37:35.403Z,101810.09
2018-06-25T11:39:40.134Z,101816.74
2018-06-25T11:41:45.000Z,101820.83
2018-06-25T11:43:49.746Z,101822.16
2018-06-25T11:45:54.457Z,101823.12
2018-06-25T11:47:59.336Z,101822.59
2018-06-25T11:50:04.098Z,101825.25
2018-06-25T11:52:08.953Z,101816.86
2018-06-25T11:54:13.644Z,101832.61
2018-06-25T11:56:18.504Z,101826.08
2018-06-25T11:58:23.332Z,101832.32
2018-06-25T12:00:28.104Z,101803.31
2018-06-25T12:02:32.859Z,101824.05
2018-06-25T12:04:37.389Z,101835.67
2018-06-25T12:06:42.433Z,101833.92
2018-06-25T12:08:47.304Z,101836.80
2018-06-25T12:10:51.999Z,101827.78
2018-06-25T12:12:56.725Z,101828.88
2018-06-25T12:15:01.535Z,101829.01
2018-06-25T12:17:06.287Z,101805.45
2018-06-25T12:19:11.120Z,101826.63
2018-06-25T12:21:15.755Z,101825.22
2018-06-25T12:23:21.097Z,101831.94
2018-06-25T12:25:25.930Z,101827.94
2018-06-25T12:27:30.741Z,101813.83
2018-06-25T12:29:35.550Z,101817.44
2018-06-25T12:31:40.326Z,101823.45
2018-06-25T12:33:45.194Z,101824.45
2018-06-25T12:35:49.944Z,101816.61
2018-06-25T12:37:54.787Z,101789.94
2018-06-25T12:39:59.625Z,101828.28
2018-06-25T12:42:04.420Z,101821.11
2018-06-25T12:44:09.531Z,101823.23
2018-06-25T12:46:14.411Z,101821.44
2018-06-25T12:48:19.282Z,101830.98
2018-06-25T12:50:24.044Z,101815.59
2018-06-25T12:52:28.998Z,101809.52
2018-06-25T12:54:34.904Z,101812.02
2018-06-25T12:56:39.647Z,101812.17
2018-06-25T12:58:44.447Z,101814.83
2018-06-25T13:00:49.099Z,101820.82
2018-06-25T13:02:53.798Z,101811.41
2018-06-25T13:04:58.766Z,101817.29
2018-06-25T13:07:03.670Z,101793.13
2018-06-25T13:09:12.479Z,101803.45
2018-06-25T13:11:17.206Z,101813.45
2018-06-25T13:13:21.910Z,101807.91
2018-06-25T13:15:26.582Z,101811.20
2018-06-25T13:17:31.238Z,101801.63
2018-06-25T13:19:35.884Z,101772.26
2018-06-25T13:21:40.640Z,101807.56
2018-06-25T13:23:45.338Z,101809.23
2018-06-25T13:25:50.130Z,101804.69
2018-06-25T13:27:54.912Z,101807.34
2018-06-25T13:29:59.619Z,101808.19
2018-06-25T13:32:04.340Z,101767.79
2018-06-25T13:34:09.093Z,101802.52
2018-06-25T13:36:13.790Z,101802.52
2018-06-25T13:38:18.539Z,101799.84
2018-06-25T13:40:23.366Z,101800.76
2018-06-25T13:42:28.937Z,101792.23
2018-06-25T13:44:33.747Z,101784.27
2018-06-25T13:46:38.487Z,101784.80
2018-06-25T13:48:43.188Z,101790.34
2018-06-25T13:50:47.942Z,101768.94
2018-06-25T13:52:52.635Z,101791.11
2018-06-25T13:54:57.469Z,101739.54
2018-06-25T13:57:02.367Z,101733.53
2018-06-25T13:59:07.221Z,101782.52
2018-06-25T14:01:11.989Z,101785.73
2018-06-25T14:03:16.943Z,101741.78
2018-06-25T14:05:21.641Z,101781.11
2018-06-25T14:07:26.401Z,101777.31
2018-06-25T14:09:31.140Z,101783.30
2018-06-25T14:11:36.698Z,101785.13
2018-06-25T14:13:41.621Z,101777.23
2018-06-25T14:15:46.596Z,101772.43
2018-06-25T14:17:51.251Z,101780.25
2018-06-25T14:19:55.973Z,101770.92
2018-06-25T14:22:00.813Z,101774.88
2018-06-25T14:24:10.645Z,101779.23
2018-06-25T14:26:15.560Z,101771.72
2018-06-25T14:28:25.350Z,101778.88
2018-06-25T14:30:35.084Z,101768.98
2018-06-25T14:32:39.894Z,101770.05
2018-06-25T14:34:48.928Z,101779.18
2018-06-25T14:36:53.723Z,101777.05
2018-06-25T14:38:58.473Z,101772.09
2018-06-25T14:41:03.483Z,101769.79
2018-06-25T14:43:08.249Z,101765.87
2018-06-25T14:45:13.154Z,101758.79
2018-06-25T14:47:17.843Z,101774.63
2018-06-25T14:49:22.615Z,101776.83
2018-06-25T14:51:27.401Z,101764.58
2018-06-25T14:53:32.208Z,101755.16
2018-06-25T14:55:36.837Z,101769.64
2018-06-25T14:57:41.528Z,101763.11
2018-06-25T14:59:46.316Z,101744.73
2018-06-25T15:01:51.793Z,101758.94
2018-06-25T15:03:56.720Z,101763.16
2018-06-25T15:06:01.700Z,101758.86
2018-06-25T15:08:06.541Z,101759.30
2018-06-25T15:10:11.413Z,101747.48
2018-06-25T15:12:16.259Z,101753.89
2018-06-25T15:14:21.029Z,101754.27
2018-06-25T15:16:25.751Z,101758.06
2018-06-25T15:18:30.567Z,101759.67
2018-06-25T15:20:35.236Z,101752.84
2018-06-25T15:22:39.971Z,101760.07
2018-06-25T15:24:44.702Z,101751.91
2018-06-25T15:26:49.493Z,101750.19
2018-06-25T15:28:54.176Z,101756.45
2018-06-25T15:30:58.890Z,101762.86
2018-06-25T15:33:03.660Z,101753.47
2018-06-25T15:35:10.274Z,101748.47
2018-06-25T15:37:15.177Z,101661.80
2018-06-25T15:39:20.022Z,101747.57
2018-06-25T15:41:24.833Z,101743.75
2018-06-25T15:43:29.706Z,101751.76
2018-06-25T15:45:34.448Z,101742.00
2018-06-25T15:47:39.151Z,101737.66
2018-06-25T15:49:43.882Z,101736.45
2018-06-25T15:51:48.760Z,101741.92
2018-06-25T15:53:53.721Z,101744.91
2018-06-25T15:55:58.703Z,101736.75
2018-06-25T15:58:03.702Z,101745.22
2018-06-25T16:00:08.567Z,101738.09
2018-06-25T16:02:13.400Z,101730.71
2018-06-25T16:04:18.229Z,101735.50
2018-06-25T16:06:23.232Z,101732.20
2018-06-25T16:08:27.978Z,101730.69
2018-06-25T16:10:32.810Z,101733.55
2018-06-25T16:12:37.594Z,101726.49
2018-06-25T16:14:42.464Z,101734.02
2018-06-25T16:16:48.759Z,101698.63
2018-06-25T16:18:53.625Z,101723.30
2018-06-25T16:20:58.434Z,101659.55
2018-06-25T16:23:03.200Z,101727.94
2018-06-25T16:25:08.271Z,101733.38
2018-06-25T16:27:13.046Z,101727.48
2018-06-25T16:29:17.850Z,101726.36
2018-06-25T16:31:22.729Z,101722.48
2018-06-25T16:33:27.762Z,101724.91
2018-06-25T16:35:33.286Z,101729.25
2018-06-25T16:37:38.259Z,101754.77
2018-06-25T16:39:43.309Z,101696.84
2018-06-25T16:41:48.419Z,101728.45
2018-06-25T16:43:53.353Z,101724.22
2018-06-25T16:45:58.190Z,101731.64
2018-06-25T16:48:03.069Z,101723.42
2018-06-25T16:50:08.578Z,101723.66
2018-06-25T16:52:13.425Z,101728.41
2018-06-25T16:54:18.282Z,101725.97
2018-06-25T16:56:23.377Z,101729.33
2018-06-25T16:58:28.474Z,101733.81
2018-06-25T17:00:33.229Z,101738.51
2018-06-25T17:02:38.315Z,101731.30
2018-06-25T17:04:43.672Z,101728.30
2018-06-25T17:06:48.458Z,101734.64
2018-06-25T17:08:53.405Z,101731.29
2018-06-25T17:10:59.280Z,101727.95
2018-06-25T17:13:04.345Z,101730.26
2018-06-25T17:15:09.165Z,101728.12
2018-06-25T17:17:13.935Z,101697.64
2018-06-25T17:19:21.459Z,101718.13
2018-06-25T17:21:26.628Z,101722.56
2018-06-25T17:23:33.178Z,101724.16
2018-06-25T17:25:37.955Z,101732.73
2018-06-25T17:27:42.770Z,101698.10
2018-06-25T17:29:57.107Z,101723.88
2018-06-25T17:32:02.005Z,101721.52
2018-06-25T17:34:07.429Z,101721.34
2018-06-25T17:36:12.699Z,101721.70
2018-06-25T17:38:17.930Z,101512.34
2018-06-25T17:40:23.257Z,101698.11
2018-06-25T17:42:28.553Z,101723.94
2018-06-25T17:44:33.593Z,101710.19
2018-06-25T17:46:38.817Z,101717.02
2018-06-25T17:48:44.626Z,101716.16
2018-06-25T17:50:52.531Z,101711.53
2018-06-25T17:52:57.431Z,101718.25
2018-06-25T17:55:02.438Z,101715.85
2018-06-25T17:57:07.424Z,101716.84
2018-06-25T17:59:12.226Z,101707.30
2018-06-25T18:01:17.615Z,101714.09
2018-06-25T18:03:22.731Z,101711.43
2018-06-25T18:05:28.737Z,101711.00
2018-06-25T18:07:37.663Z,101688.70
2018-06-25T18:09:42.630Z,101721.03
2018-06-25T18:11:47.768Z,101710.72
2018-06-25T18:13:52.689Z,101721.16
2018-06-25T18:15:57.728Z,101697.14
2018-06-25T18:18:02.603Z,101716.94
2018-06-25T18:20:07.527Z,101718.84
2018-06-25T18:22:12.222Z,101721.75
2018-06-25T18:24:16.978Z,101713.38
2018-06-25T18:26:22.179Z,101722.47
2018-06-25T18:28:27.258Z,101719.83
2018-06-25T18:30:31.883Z,101710.51
2018-06-25T18:32:36.800Z,101721.87
2018-06-25T18:34:41.777Z,101706.53
2018-06-25T18:36:46.662Z,101721.25
2018-06-25T18:38:51.704Z,101658.83
2018-06-25T18:40:56.824Z,101649.91
2018-06-25T18:43:01.855Z,101699.55
2018-06-25T18:45:06.862Z,101714.70
2018-06-25T18:47:11.776Z,101715.63
2018-06-25T18:49:16.751Z,101717.97
2018-06-25T18:51:22.267Z,101710.84
2018-06-25T18:53:27.277Z,101718.10
2018-06-25T18:55:34.189Z,101725.97
2018-06-25T18:57:39.245Z,101724.50
2018-06-25T18:59:44.593Z,101700.98
2018-06-25T19:01:49.843Z,101724.50
2018-06-25T19:03:55.386Z,101729.32
2018-06-25T19:06:00.617Z,101685.70
2018-06-25T19:08:06.116Z,101701.89
2018-06-25T19:10:11.205Z,101613.08
2018-06-25T19:12:20.537Z,101718.80
2018-06-25T19:14:25.575Z,101721.73
2018-06-25T19:16:30.825Z,101728.34
2018-06-25T19:18:35.946Z,101724.66
2018-06-25T19:20:41.051Z,101720.36
2018-06-25T19:22:46.160Z,101726.16
2018-06-25T19:24:51.007Z,101718.98
2018-06-25T19:26:56.165Z,101679.89
2018-06-25T19:29:01.238Z,101730.45
2018-06-25T19:31:06.421Z,101725.37
2018-06-25T19:33:11.371Z,101729.95
2018-06-25T19:35:16.416Z,101729.47
2018-06-25T19:37:21.349Z,101728.39
2018-06-25T19:39:26.405Z,101736.48
2018-06-25T19:41:31.314Z,101739.97
2018-06-25T19:43:36.229Z,101739.55
2018-06-25T19:45:42.775Z,101736.97
2018-06-25T19:47:47.934Z,101747.81
2018-06-25T19:49:53.154Z,101747.22
2018-06-25T19:51:58.648Z,101742.95
2018-06-25T19:54:05.090Z,101737.09
2018-06-25T19:56:11.455Z,101740.16
2018-06-25T19:58:16.555Z,101743.03
2018-06-25T20:00:22.597Z,101732.77
2018-06-25T20:02:28.259Z,101747.39
2018-06-25T20:04:33.374Z,101748.66
2018-06-25T20:06:38.625Z,101752.41
2018-06-25T20:08:43.848Z,101753.83
2018-06-25T20:10:49.297Z,101753.31
2018-06-25T20:12:54.355Z,101753.02
2018-06-25T20:14:59.546Z,101755.45
2018-06-25T20:17:05.554Z,101755.28
2018-06-25T20:19:12.020Z,101549.58
2018-06-25T20:21:18.172Z,101754.36
2018-06-25T20:23:23.619Z,101755.26
2018-06-25T20:25:29.989Z,101716.66
2018-06-25T20:27:36.123Z,101776.47
2018-06-25T20:29:41.689Z,101769.69
2018-06-25T20:31:49.720Z,101599.42
2018-06-25T20:33:58.315Z,101784.55
2018-06-25T20:36:08.918Z,101778.34
2018-06-25T20:38:16.220Z,101779.81
2018-06-25T20:40:23.007Z,101754.50
2018-06-25T20:42:30.112Z,101778.16
2018-06-25T20:44:41.855Z,101781.48
2018-06-25T20:46:47.881Z,101780.52
2018-06-25T20:48:55.798Z,101787.84
2018-06-25T20:51:01.495Z,101782.34
2018-06-25T20:53:07.630Z,101776.70
2018-06-25T20:55:12.931Z,101789.05
2018-06-25T20:57:18.218Z,101499.92
2018-06-25T20:59:23.394Z,101790.72
2018-06-25T21:01:28.498Z,101562.99
2018-06-25T21:03:33.734Z,101781.67
2018-06-25T21:05:38.898Z,101791.95
2018-06-25T21:07:44.325Z,101788.89
2018-06-25T21:09:49.198Z,101781.11
2018-06-25T21:11:54.453Z,101787.44
2018-06-25T21:13:59.584Z,101776.54
2018-06-25T21:16:04.755Z,101781.79
2018-06-25T21:18:10.065Z,101691.25
2018-06-25T21:20:15.135Z,101616.19
2018-06-25T21:22:20.124Z,101784.80
2018-06-25T21:24:25.110Z,101617.16
2018-06-25T21:26:30.236Z,101594.37
2018-06-25T21:28:45.284Z,101796.33
2018-06-25T21:30:50.540Z,101791.59
2018-06-25T21:32:55.691Z,101527.48
2018-06-25T21:35:01.035Z,101778.06
2018-06-25T21:37:06.318Z,101770.88
2018-06-25T21:39:11.266Z,101774.81
2018-06-25T21:41:16.206Z,101774.92
2018-06-25T21:43:21.060Z,101785.94
2018-06-25T21:45:25.666Z,101793.50
2018-06-25T21:47:30.544Z,101590.68
2018-06-25T21:49:35.684Z,101789.44
2018-06-25T21:51:40.722Z,101787.00
2018-06-25T21:53:45.578Z,101784.70
2018-06-25T21:55:50.409Z,101785.12
2018-06-25T21:57:55.391Z,101780.38
2018-06-25T22:00:00.363Z,101779.48
2018-06-25T22:02:05.142Z,101782.20
2018-06-25T22:04:10.045Z,101786.02
2018-06-25T22:06:14.706Z,101786.26
2018-06-25T22:08:19.423Z,101791.67
2018-06-25T22:10:24.361Z,101785.61
2018-06-25T22:12:29.093Z,101784.20
2018-06-25T22:14:33.982Z,101786.83
2018-06-25T22:16:38.792Z,101787.36
2018-06-25T22:18:43.595Z,101782.55
2018-06-25T22:20:48.517Z,101790.00
2018-06-25T22:22:53.550Z,101785.52
2018-06-25T22:24:58.279Z,101785.05
2018-06-25T22:27:03.339Z,101807.61
2018-06-25T22:29:08.257Z,101544.36
2018-06-25T22:31:13.035Z,101797.68
2018-06-25T22:33:17.933Z,101790.80
2018-06-25T22:35:23.082Z,101778.59
2018-06-25T22:37:27.919Z,101735.02
2018-06-25T22:39:32.924Z,101801.18
2018-06-25T22:41:38.158Z,101547.52
2018-06-25T22:43:43.187Z,101795.94
2018-06-25T22:45:48.557Z,101797.77
2018-06-25T22:47:53.497Z,101798.02
2018-06-25T22:49:58.531Z,101782.37
2018-06-25T22:52:03.452Z,101793.34
2018-06-25T22:54:08.917Z,101793.60
2018-06-25T22:56:13.753Z,101800.16
2018-06-25T22:58:18.637Z,101806.87
2018-06-25T23:00:23.427Z,101791.34
2018-06-25T23:02:28.517Z,101794.57
2018-06-25T23:04:33.585Z,101633.57
2018-06-25T23:06:38.452Z,101796.23
2018-06-25T23:08:43.281Z,101795.50
2018-06-25T23:10:48.012Z,101785.77
2018-06-25T23:12:52.924Z,101792.36
2018-06-25T23:14:57.675Z,101795.56
2018-06-25T23:17:02.499Z,101799.09
2018-06-25T23:19:07.532Z,101800.86
2018-06-25T23:21:12.290Z,101802.50
2018-06-25T23:23:17.119Z,101706.70
2018-06-25T23:25:22.207Z,101703.49
2018-06-25T23:27:27.060Z,101800.27
2018-06-25T23:29:31.890Z,101794.89
2018-06-25T23:31:36.779Z,101803.80
2018-06-25T23:33:41.689Z,101791.56
2018-06-25T23:35:46.639Z,101668.83
2018-06-25T23:37:51.487Z,101699.81
2018-06-25T23:39:56.345Z,101716.88
2018-06-25T23:42:01.122Z,101786.39
2018-06-25T23:44:06.015Z,101792.72
2018-06-25T23:46:10.819Z,101753.52
2018-06-25T23:48:15.627Z,101797.27
2018-06-25T23:50:20.523Z,101796.48
2018-06-25T23:52:25.389Z,101797.50